Hyderabad Weather



Hyderabad's Current Weather

Temprature 25.26o clear sky

clear sky

Rain: 0 %

Min Temprature25.26o
Max Temprature25.26o
Humidity33
Wind Speed4.07 m/h
Sun Rise06:31:58
Sun Set17:48:24
Current Time: 28-Oct-2020 05:01:43
Lat/Lon: 25.39, 68.37




Hyderabad's Geo Location



Hyderabad's Weather Forecast

Time Overall Temp Min Temp Max Temp Humidity Wind Speed Rain
28-Oct-2020 (Wed)
08:00:00 clear sky 26.130 26.130 27.050 30 3.59 m/h 0 %
11:00:00 clear sky 31.590 31.590 33.340 18 4.68 m/h 0 %
14:00:00 clear sky 34.480 34.480 35.110 13 4.59 m/h 0 %
17:00:00 clear sky 33.500 33.500 33.570 14 3.35 m/h 0 %
20:00:00 clear sky 28.710 28.710 28.710 27 5.59 m/h 0 %
23:00:00 clear sky 26.390 26.390 26.390 39 5.08 m/h 0 %
29-Oct-2020 (Thu)
02:00:00 clear sky 24.500 24.500 24.500 47 4.78 m/h 0 %
05:00:00 clear sky 23.700 23.700 23.700 53 3.74 m/h 0 %
08:00:00 clear sky 25.350 25.350 25.350 46 3.76 m/h 0 %
11:00:00 clear sky 31.800 31.800 31.800 23 3.66 m/h 0 %
14:00:00 clear sky 34.070 34.070 34.070 16 2.65 m/h 0 %
17:00:00 clear sky 33.090 33.090 33.090 17 0.68 m/h 0 %
20:00:00 clear sky 28.500 28.500 28.500 27 4.89 m/h 0 %
23:00:00 clear sky 25.950 25.950 25.950 49 3.98 m/h 0 %
30-Oct-2020 (Fri)
02:00:00 clear sky 24.940 24.940 24.940 52 3.61 m/h 0 %
05:00:00 clear sky 23.940 23.940 23.940 51 2.53 m/h 0 %
08:00:00 clear sky 26.900 26.900 26.900 38 1.52 m/h 0 %
11:00:00 clear sky 32.350 32.350 32.350 19 0.86 m/h 0 %
14:00:00 clear sky 34.180 34.180 34.180 14 2.18 m/h 0 %
17:00:00 clear sky 33.120 33.120 33.120 15 2.03 m/h 0 %
20:00:00 clear sky 28.670 28.670 28.670 21 2.36 m/h 0 %
23:00:00 clear sky 27.170 27.170 27.170 27 3.15 m/h 0 %
31-Oct-2020 (Sat)
02:00:00 clear sky 26.190 26.190 26.190 29 3.05 m/h 0 %
05:00:00 clear sky 25.010 25.010 25.010 30 2.61 m/h 0 %
08:00:00 clear sky 27.130 27.130 27.130 25 3.6 m/h 0 %
11:00:00 clear sky 33.290 33.290 33.290 13 3.43 m/h 0 %
14:00:00 clear sky 34.960 34.960 34.960 10 0.29 m/h 0 %
17:00:00 clear sky 33.510 33.510 33.510 12 1.99 m/h 0 %
20:00:00 clear sky 27.640 27.640 27.640 16 0.51 m/h 0 %
23:00:00 clear sky 26.160 26.160 26.160 18 1.68 m/h 0 %
01-Nov-2020 (Sun)
02:00:00 clear sky 25.470 25.470 25.470 20 2.12 m/h 0 %
05:00:00 clear sky 25.200 25.200 25.200 21 2.99 m/h 0 %
08:00:00 clear sky 27.960 27.960 27.960 18 2.01 m/h 0 %
11:00:00 clear sky 34.050 34.050 34.050 11 0.88 m/h 0 %
14:00:00 clear sky 35.430 35.430 35.430 9 1.25 m/h 0 %
17:00:00 clear sky 33.470 33.470 33.470 11 1.39 m/h 0 %
20:00:00 clear sky 28.670 28.670 28.670 14 3.08 m/h 0 %
23:00:00 clear sky 26.320 26.320 26.320 17 2.41 m/h 0 %
02-Nov-2020 (Mon)
02:00:00 clear sky 25.040 25.040 25.040 19 2.22 m/h 0 %
05:00:00 clear sky 24.400 24.400 24.400 19 1.99 m/h 0 %

Famous Cities (60)